Portada
METAR-TAF:

METAR-TAF

Aeroports :

Wadesboro, Carolina del Nord, Estats Units d'Amèrica

latitud: 35-01-14N, longitud: 080-04-38W, altitud: 91 m

Observació

L'informe es va fer fa 27 minuts, a les 08:20 UTC
Vent 7 kt del Sud
Temperatura 21°C
Humitat 88%
Pressió 1017 hPa
Visibilitat: 11.3 km
Cel ennuvolat a una alçada de 1100 ft

METAR: KAFP 200820Z AUTO 17007KT 7SM BKN011 21/19 A3002 RMK AO2 T02110192

Hora: 04:47 (08:47 UTC)


TAF: manca

Observacions i pronòstics meteorològics de més de 4000 aeroports (METAR i TAF).

Les estacions disponibles són els punts grocs i vermells al mapa.

Posi el ratolí al punt desitjat per veure el nom de l'estació.

Feu clic per veure les observacions i els pronòstics meteorològics.

Per canviar el mapa: feu clic els botons verds amb una creu de color negre per apropar; al botó verd amb un guió per allunyar la imatge; o en les fletxes verdes per a mapes adjacents.


METAR-TAF: